sensor_id;sensor_type;location;lat;lon;timestamp;pressure;altitude;pressure_sealevel;temperature;humidity
12973;BME280;6551;51.056;9.466;2022-09-09T00:01:54;97078.19;;;21.33;63.50
12973;BME280;6551;51.056;9.466;2022-09-09T00:04:29;97070.97;;;21.28;64.57
12973;BME280;6551;51.056;9.466;2022-09-09T00:10:13;97069.97;;;21.38;63.16
12973;BME280;6551;51.056;9.466;2022-09-09T00:21:17;97067.41;;;21.00;64.58
12973;BME280;6551;51.056;9.466;2022-09-09T00:31:33;97052.25;;;20.72;66.15
12973;BME280;6551;51.056;9.466;2022-09-09T00:34:11;97047.41;;;20.56;66.68
12973;BME280;6551;51.056;9.466;2022-09-09T00:36:40;97056.41;;;20.51;66.77
12973;BME280;6551;51.056;9.466;2022-09-09T00:39:27;97058.84;;;20.66;66.32
12973;BME280;6551;51.056;9.466;2022-09-09T00:42:15;97059.38;;;20.68;66.22
12973;BME280;6551;51.056;9.466;2022-09-09T00:47:53;97049.00;;;21.16;64.60
12973;BME280;6551;51.056;9.466;2022-09-09T00:58:18;97045.19;;;21.80;61.33
12973;BME280;6551;51.056;9.466;2022-09-09T01:00:51;97055.28;;;22.16;62.14
12973;BME280;6551;51.056;9.466;2022-09-09T01:06:31;97058.88;;;22.55;59.53
12973;BME280;6551;51.056;9.466;2022-09-09T01:17:33;97062.63;;;21.66;63.73
12973;BME280;6551;51.056;9.466;2022-09-09T01:20:13;97055.81;;;21.54;63.57
12973;BME280;6551;51.056;9.466;2022-09-09T01:23:04;97048.19;;;21.43;63.47
12973;BME280;6551;51.056;9.466;2022-09-09T01:26:04;97050.13;;;21.15;64.90
12973;BME280;6551;51.056;9.466;2022-09-09T01:28:35;97053.88;;;21.00;66.13
12973;BME280;6551;51.056;9.466;2022-09-09T01:31:05;97056.50;;;21.06;65.01
12973;BME280;6551;51.056;9.466;2022-09-09T01:33:31;97060.38;;;20.86;65.86
12973;BME280;6551;51.056;9.466;2022-09-09T01:38:36;97052.97;;;21.05;64.86
12973;BME280;6551;51.056;9.466;2022-09-09T01:41:02;97046.47;;;21.06;64.51
12973;BME280;6551;51.056;9.466;2022-09-09T01:43:29;97055.63;;;21.10;65.21
12973;BME280;6551;51.056;9.466;2022-09-09T01:45:59;97049.81;;;21.17;64.98
12973;BME280;6551;51.056;9.466;2022-09-09T01:48:27;97056.84;;;21.18;65.08
12973;BME280;6551;51.056;9.466;2022-09-09T01:50:52;97057.41;;;21.01;65.13
12973;BME280;6551;51.056;9.466;2022-09-09T01:53:20;97056.03;;;21.17;64.28
12973;BME280;6551;51.056;9.466;2022-09-09T01:56:02;97055.50;;;21.42;62.91
12973;BME280;6551;51.056;9.466;2022-09-09T01:59:01;97064.81;;;21.64;62.56
12973;BME280;6551;51.056;9.466;2022-09-09T02:04:32;97059.31;;;22.04;61.03
12973;BME280;6551;51.056;9.466;2022-09-09T02:07:01;97055.41;;;21.97;60.97
12973;BME280;6551;51.056;9.466;2022-09-09T02:09:30;97055.72;;;21.95;60.74
12973;BME280;6551;51.056;9.466;2022-09-09T02:12:13;97060.91;;;22.05;60.43
12973;BME280;6551;51.056;9.466;2022-09-09T02:14:46;97047.59;;;21.95;61.16
12973;BME280;6551;51.056;9.466;2022-09-09T02:17:29;97063.38;;;21.93;61.96
12973;BME280;6551;51.056;9.466;2022-09-09T02:20:08;97059.75;;;21.98;61.78
12973;BME280;6551;51.056;9.466;2022-09-09T02:22:40;97053.03;;;21.95;61.50
12973;BME280;6551;51.056;9.466;2022-09-09T02:25:12;97062.25;;;21.94;61.39
12973;BME280;6551;51.056;9.466;2022-09-09T02:27:41;97062.69;;;21.88;61.52
12973;BME280;6551;51.056;9.466;2022-09-09T02:30:09;97060.88;;;21.70;61.84
12973;BME280;6551;51.056;9.466;2022-09-09T02:32:36;97061.31;;;21.49;63.10
12973;BME280;6551;51.056;9.466;2022-09-09T02:35:09;97059.44;;;21.36;63.36
12973;BME280;6551;51.056;9.466;2022-09-09T02:37:39;97071.19;;;21.32;63.65
12973;BME280;6551;51.056;9.466;2022-09-09T02:40:08;97078.28;;;21.14;64.25
12973;BME280;6551;51.056;9.466;2022-09-09T02:42:46;97066.75;;;21.22;64.24
12973;BME280;6551;51.056;9.466;2022-09-09T02:45:16;97061.75;;;21.16;64.32
12973;BME280;6551;51.056;9.466;2022-09-09T02:53:23;97071.16;;;21.05;64.66
12973;BME280;6551;51.056;9.466;2022-09-09T02:55:55;97067.75;;;20.99;64.73
12973;BME280;6551;51.056;9.466;2022-09-09T02:58:23;97066.97;;;20.80;65.11
12973;BME280;6551;51.056;9.466;2022-09-09T03:00:51;97075.28;;;20.70;65.76
12973;BME280;6551;51.056;9.466;2022-09-09T03:03:18;97074.19;;;20.57;66.74
12973;BME280;6551;51.056;9.466;2022-09-09T03:05:45;97070.69;;;20.70;65.80
12973;BME280;6551;51.056;9.466;2022-09-09T03:08:12;97064.91;;;20.77;64.92
12973;BME280;6551;51.056;9.466;2022-09-09T03:10:38;97071.50;;;20.71;64.67
12973;BME280;6551;51.056;9.466;2022-09-09T03:13:04;97067.16;;;20.56;65.67
12973;BME280;6551;51.056;9.466;2022-09-09T03:15:32;97068.69;;;20.76;65.95
12973;BME280;6551;51.056;9.466;2022-09-09T03:17:59;97067.69;;;20.85;64.29
12973;BME280;6551;51.056;9.466;2022-09-09T03:20:27;97071.31;;;20.94;64.42
12973;BME280;6551;51.056;9.466;2022-09-09T03:22:54;97075.59;;;20.68;65.26
12973;BME280;6551;51.056;9.466;2022-09-09T03:25:21;97066.94;;;20.53;66.23
12973;BME280;6551;51.056;9.466;2022-09-09T03:27:50;97068.09;;;20.65;65.14
12973;BME280;6551;51.056;9.466;2022-09-09T03:30:24;97061.41;;;20.44;65.72
12973;BME280;6551;51.056;9.466;2022-09-09T03:32:50;97065.84;;;20.54;65.87
12973;BME280;6551;51.056;9.466;2022-09-09T03:35:16;97067.94;;;20.43;66.50
12973;BME280;6551;51.056;9.466;2022-09-09T03:37:42;97062.31;;;20.53;66.37
12973;BME280;6551;51.056;9.466;2022-09-09T03:40:09;97070.97;;;20.69;65.18
12973;BME280;6551;51.056;9.466;2022-09-09T03:42:38;97066.22;;;20.79;64.62
12973;BME280;6551;51.056;9.466;2022-09-09T03:45:06;97061.69;;;20.88;64.58
12973;BME280;6551;51.056;9.466;2022-09-09T03:47:34;97056.00;;;20.90;64.20
12973;BME280;6551;51.056;9.466;2022-09-09T03:50:00;97057.28;;;20.79;64.03
12973;BME280;6551;51.056;9.466;2022-09-09T03:52:25;97056.94;;;20.67;65.16
12973;BME280;6551;51.056;9.466;2022-09-09T03:54:52;97053.84;;;20.60;65.63
12973;BME280;6551;51.056;9.466;2022-09-09T03:57:19;97056.44;;;20.65;65.79
12973;BME280;6551;51.056;9.466;2022-09-09T03:59:45;97052.56;;;20.71;64.17
12973;BME280;6551;51.056;9.466;2022-09-09T04:02:11;97044.09;;;20.59;64.88
12973;BME280;6551;51.056;9.466;2022-09-09T04:04:37;97047.31;;;20.61;64.77
12973;BME280;6551;51.056;9.466;2022-09-09T04:07:02;97047.84;;;20.63;65.49
12973;BME280;6551;51.056;9.466;2022-09-09T04:09:28;97044.53;;;20.66;65.27
12973;BME280;6551;51.056;9.466;2022-09-09T04:11:54;97049.84;;;20.71;65.40
12973;BME280;6551;51.056;9.466;2022-09-09T04:14:20;97052.94;;;20.64;64.89
12973;BME280;6551;51.056;9.466;2022-09-09T04:16:46;97048.25;;;20.70;64.22
12973;BME280;6551;51.056;9.466;2022-09-09T04:19:13;97049.16;;;20.79;65.04
12973;BME280;6551;51.056;9.466;2022-09-09T04:21:40;97042.25;;;20.86;64.19
12973;BME280;6551;51.056;9.466;2022-09-09T04:24:07;97050.78;;;20.93;63.44
12973;BME280;6551;51.056;9.466;2022-09-09T04:26:35;97042.88;;;21.11;64.14
12973;BME280;6551;51.056;9.466;2022-09-09T04:29:03;97044.84;;;20.91;63.89
12973;BME280;6551;51.056;9.466;2022-09-09T04:31:28;97044.16;;;20.99;64.24
12973;BME280;6551;51.056;9.466;2022-09-09T04:33:54;97042.84;;;20.97;63.51
12973;BME280;6551;51.056;9.466;2022-09-09T04:36:20;97043.38;;;20.99;63.38
12973;BME280;6551;51.056;9.466;2022-09-09T04:38:46;97051.38;;;21.04;63.57
12973;BME280;6551;51.056;9.466;2022-09-09T04:41:14;97048.69;;;21.04;63.41
12973;BME280;6551;51.056;9.466;2022-09-09T04:43:41;97055.28;;;20.98;63.50
12973;BME280;6551;51.056;9.466;2022-09-09T04:46:08;97053.69;;;20.97;63.71
12973;BME280;6551;51.056;9.466;2022-09-09T04:48:33;97053.41;;;20.98;64.06
12973;BME280;6551;51.056;9.466;2022-09-09T04:51:02;97060.94;;;21.15;63.39
12973;BME280;6551;51.056;9.466;2022-09-09T04:53:29;97054.41;;;21.16;62.75
12973;BME280;6551;51.056;9.466;2022-09-09T04:56:11;97049.69;;;21.22;62.68
12973;BME280;6551;51.056;9.466;2022-09-09T04:58:39;97052.47;;;21.03;63.95
12973;BME280;6551;51.056;9.466;2022-09-09T05:01:14;97051.06;;;20.78;64.89
12973;BME280;6551;51.056;9.466;2022-09-09T05:03:41;97051.38;;;20.45;66.26
12973;BME280;6551;51.056;9.466;2022-09-09T05:06:10;97045.44;;;20.29;67.43
12973;BME280;6551;51.056;9.466;2022-09-09T05:08:38;97043.03;;;20.09;67.40
12973;BME280;6551;51.056;9.466;2022-09-09T05:11:23;97047.97;;;20.20;67.72
12973;BME280;6551;51.056;9.466;2022-09-09T05:13:50;97052.47;;;20.43;66.44
12973;BME280;6551;51.056;9.466;2022-09-09T05:16:17;97060.22;;;20.50;66.66
12973;BME280;6551;51.056;9.466;2022-09-09T05:18:44;97056.66;;;20.68;65.98
12973;BME280;6551;51.056;9.466;2022-09-09T05:21:11;97059.78;;;20.75;65.28
12973;BME280;6551;51.056;9.466;2022-09-09T05:23:37;97069.81;;;20.88;65.48
12973;BME280;6551;51.056;9.466;2022-09-09T05:26:05;97060.00;;;20.79;65.47
12973;BME280;6551;51.056;9.466;2022-09-09T05:28:33;97062.09;;;20.82;65.07
12973;BME280;6551;51.056;9.466;2022-09-09T05:31:03;97068.00;;;20.84;66.05
12973;BME280;6551;51.056;9.466;2022-09-09T05:33:34;97068.00;;;20.84;65.74
12973;BME280;6551;51.056;9.466;2022-09-09T05:36:07;97066.50;;;20.91;65.07
12973;BME280;6551;51.056;9.466;2022-09-09T05:38:34;97071.81;;;20.96;65.47
12973;BME280;6551;51.056;9.466;2022-09-09T05:41:01;97067.84;;;21.08;64.43
12973;BME280;6551;51.056;9.466;2022-09-09T05:43:28;97072.59;;;21.29;63.04
12973;BME280;6551;51.056;9.466;2022-09-09T05:46:07;97081.06;;;21.64;62.50
12973;BME280;6551;51.056;9.466;2022-09-09T05:48:36;97085.16;;;21.75;62.13
12973;BME280;6551;51.056;9.466;2022-09-09T05:51:04;97086.00;;;21.62;62.47
12973;BME280;6551;51.056;9.466;2022-09-09T05:53:30;97087.09;;;21.47;63.86
12973;BME280;6551;51.056;9.466;2022-09-09T05:56:15;97091.44;;;21.48;64.34
12973;BME280;6551;51.056;9.466;2022-09-09T05:58:43;97090.03;;;21.50;63.41
12973;BME280;6551;51.056;9.466;2022-09-09T06:01:15;97081.91;;;21.23;64.91
12973;BME280;6551;51.056;9.466;2022-09-09T06:03:43;97090.75;;;21.29;65.98
12973;BME280;6551;51.056;9.466;2022-09-09T06:06:15;97090.31;;;21.35;65.35
12973;BME280;6551;51.056;9.466;2022-09-09T06:08:43;97088.25;;;21.32;65.22
12973;BME280;6551;51.056;9.466;2022-09-09T06:11:23;97088.72;;;21.21;65.43
12973;BME280;6551;51.056;9.466;2022-09-09T06:13:50;97095.44;;;21.23;65.90
12973;BME280;6551;51.056;9.466;2022-09-09T06:16:21;97095.44;;;21.10;66.35
12973;BME280;6551;51.056;9.466;2022-09-09T06:18:49;97091.22;;;21.31;66.39
12973;BME280;6551;51.056;9.466;2022-09-09T06:21:19;97088.09;;;21.65;65.40
12973;BME280;6551;51.056;9.466;2022-09-09T06:23:46;97091.53;;;22.06;64.74
12973;BME280;6551;51.056;9.466;2022-09-09T06:26:33;97090.75;;;22.50;62.52
12973;BME280;6551;51.056;9.466;2022-09-09T06:29:00;97072.09;;;22.48;62.34
12973;BME280;6551;51.056;9.466;2022-09-09T06:31:29;97078.19;;;22.76;60.98
12973;BME280;6551;51.056;9.466;2022-09-09T06:33:56;97073.78;;;22.89;60.33
12973;BME280;6551;51.056;9.466;2022-09-09T06:36:25;97074.44;;;23.25;59.97
12973;BME280;6551;51.056;9.466;2022-09-09T06:38:51;97071.91;;;23.37;58.50
12973;BME280;6551;51.056;9.466;2022-09-09T06:41:19;97074.41;;;23.64;58.94
12973;BME280;6551;51.056;9.466;2022-09-09T06:43:46;97082.75;;;23.68;58.42
12973;BME280;6551;51.056;9.466;2022-09-09T06:46:17;97069.47;;;23.27;58.70
12973;BME280;6551;51.056;9.466;2022-09-09T06:48:45;97072.66;;;23.20;58.90
12973;BME280;6551;51.056;9.466;2022-09-09T06:51:16;97071.63;;;23.08;59.92
12973;BME280;6551;51.056;9.466;2022-09-09T06:53:43;97063.38;;;22.82;60.52
12973;BME280;6551;51.056;9.466;2022-09-09T06:58:42;97068.16;;;22.77;60.50
12973;BME280;6551;51.056;9.466;2022-09-09T07:01:12;97081.53;;;22.73;60.38
12973;BME280;6551;51.056;9.466;2022-09-09T07:03:39;97080.97;;;22.85;61.04
12973;BME280;6551;51.056;9.466;2022-09-09T07:06:06;97090.91;;;22.67;61.29
12973;BME280;6551;51.056;9.466;2022-09-09T07:08:33;97086.88;;;22.42;62.16
12973;BME280;6551;51.056;9.466;2022-09-09T07:11:07;97091.22;;;22.43;62.33
12973;BME280;6551;51.056;9.466;2022-09-09T07:13:34;97097.13;;;22.45;62.24
12973;BME280;6551;51.056;9.466;2022-09-09T07:16:08;97094.34;;;22.37;62.08
12973;BME280;6551;51.056;9.466;2022-09-09T07:18:34;97090.28;;;21.90;63.35
12973;BME280;6551;51.056;9.466;2022-09-09T07:21:01;97103.72;;;21.95;63.50
12973;BME280;6551;51.056;9.466;2022-09-09T07:23:29;97093.81;;;21.90;63.30
12973;BME280;6551;51.056;9.466;2022-09-09T07:25:56;97105.78;;;21.48;63.78
12973;BME280;6551;51.056;9.466;2022-09-09T07:28:22;97100.75;;;21.28;65.62
12973;BME280;6551;51.056;9.466;2022-09-09T07:31:00;97112.41;;;21.29;66.31
12973;BME280;6551;51.056;9.466;2022-09-09T07:33:30;97117.22;;;21.32;66.18
12973;BME280;6551;51.056;9.466;2022-09-09T07:36:09;97116.50;;;21.53;65.52
12973;BME280;6551;51.056;9.466;2022-09-09T07:38:46;97115.81;;;21.62;65.36
12973;BME280;6551;51.056;9.466;2022-09-09T07:41:16;97113.09;;;21.48;66.04
12973;BME280;6551;51.056;9.466;2022-09-09T07:43:45;97127.34;;;21.13;67.28
12973;BME280;6551;51.056;9.466;2022-09-09T07:46:12;97125.84;;;21.20;66.91
12973;BME280;6551;51.056;9.466;2022-09-09T07:48:43;97133.78;;;20.98;67.87
12973;BME280;6551;51.056;9.466;2022-09-09T07:51:13;97128.97;;;20.95;68.35
12973;BME280;6551;51.056;9.466;2022-09-09T07:53:44;97136.41;;;20.57;69.20
12973;BME280;6551;51.056;9.466;2022-09-09T07:56:15;97141.63;;;20.67;69.54
12973;BME280;6551;51.056;9.466;2022-09-09T07:58:47;97143.06;;;20.78;69.10
12973;BME280;6551;51.056;9.466;2022-09-09T08:01:17;97140.16;;;20.75;68.70
12973;BME280;6551;51.056;9.466;2022-09-09T08:03:51;97140.88;;;20.80;68.55
12973;BME280;6551;51.056;9.466;2022-09-09T08:06:18;97140.72;;;20.72;68.14
12973;BME280;6551;51.056;9.466;2022-09-09T08:08:44;97142.59;;;20.90;67.92
12973;BME280;6551;51.056;9.466;2022-09-09T08:11:13;97130.66;;;21.23;68.34
12973;BME280;6551;51.056;9.466;2022-09-09T08:13:43;97137.00;;;21.46;66.76
12973;BME280;6551;51.056;9.466;2022-09-09T08:16:16;97128.72;;;21.92;64.96
12973;BME280;6551;51.056;9.466;2022-09-09T08:18:42;97134.94;;;22.06;64.74
12973;BME280;6551;51.056;9.466;2022-09-09T08:21:16;97129.22;;;22.30;63.46
12973;BME280;6551;51.056;9.466;2022-09-09T08:23:45;97124.47;;;22.49;62.01
12973;BME280;6551;51.056;9.466;2022-09-09T08:26:14;97134.47;;;22.84;61.44
12973;BME280;6551;51.056;9.466;2022-09-09T08:28:41;97137.69;;;23.17;60.73
12973;BME280;6551;51.056;9.466;2022-09-09T08:31:24;97130.88;;;23.67;59.53
12973;BME280;6551;51.056;9.466;2022-09-09T08:33:50;97130.47;;;24.00;57.56
12973;BME280;6551;51.056;9.466;2022-09-09T08:36:20;97131.00;;;24.53;56.90
12973;BME280;6551;51.056;9.466;2022-09-09T08:38:53;97126.66;;;24.69;55.37
12973;BME280;6551;51.056;9.466;2022-09-09T08:47:41;97128.56;;;25.49;53.45
12973;BME280;6551;51.056;9.466;2022-09-09T08:50:28;97130.94;;;25.60;53.09
12973;BME280;6551;51.056;9.466;2022-09-09T08:53:23;97133.94;;;25.67;52.94
12973;BME280;6551;51.056;9.466;2022-09-09T08:55:57;97128.09;;;25.39;53.23
12973;BME280;6551;51.056;9.466;2022-09-09T08:58:29;97131.41;;;25.15;53.38
12973;BME280;6551;51.056;9.466;2022-09-09T09:11:49;97143.19;;;26.33;51.38
12973;BME280;6551;51.056;9.466;2022-09-09T09:14:22;97137.28;;;25.72;52.34
12973;BME280;6551;51.056;9.466;2022-09-09T09:17:06;97137.72;;;24.98;53.67
12973;BME280;6551;51.056;9.466;2022-09-09T09:19:38;97126.69;;;24.09;55.28
12973;BME280;6551;51.056;9.466;2022-09-09T09:22:52;97125.44;;;23.67;57.16
12973;BME280;6551;51.056;9.466;2022-09-09T09:30:21;97135.72;;;23.09;58.64
12973;BME280;6551;51.056;9.466;2022-09-09T09:33:10;97133.97;;;23.13;59.48
12973;BME280;6551;51.056;9.466;2022-09-09T09:35:40;97132.25;;;23.48;59.09
12973;BME280;6551;51.056;9.466;2022-09-09T09:38:22;97134.69;;;24.23;57.65
12973;BME280;6551;51.056;9.466;2022-09-09T09:40:57;97135.00;;;24.73;54.79
12973;BME280;6551;51.056;9.466;2022-09-09T09:43:37;97130.25;;;25.25;54.08
12973;BME280;6551;51.056;9.466;2022-09-09T09:46:17;97121.84;;;24.83;52.82
12973;BME280;6551;51.056;9.466;2022-09-09T09:48:44;97120.72;;;24.93;52.50
12973;BME280;6551;51.056;9.466;2022-09-09T09:51:14;97130.19;;;25.42;52.20
12973;BME280;6551;51.056;9.466;2022-09-09T09:53:43;97141.84;;;25.60;51.65
12973;BME280;6551;51.056;9.466;2022-09-09T09:56:11;97129.66;;;25.86;51.61
12973;BME280;6551;51.056;9.466;2022-09-09T09:58:52;97127.56;;;26.21;50.84
12973;BME280;6551;51.056;9.466;2022-09-09T10:04:17;97117.94;;;25.86;50.48
12973;BME280;6551;51.056;9.466;2022-09-09T10:06:44;97127.84;;;25.70;51.06
12973;BME280;6551;51.056;9.466;2022-09-09T10:09:26;97125.63;;;25.92;51.22
12973;BME280;6551;51.056;9.466;2022-09-09T10:12:17;97125.63;;;25.63;51.70
12973;BME280;6551;51.056;9.466;2022-09-09T10:15:20;97122.25;;;25.20;52.68
12973;BME280;6551;51.056;9.466;2022-09-09T10:24:03;97118.19;;;25.34;53.10
12973;BME280;6551;51.056;9.466;2022-09-09T10:30:01;97120.47;;;25.91;51.93
12973;BME280;6551;51.056;9.466;2022-09-09T10:38:44;97108.84;;;24.97;52.77
12973;BME280;6551;51.056;9.466;2022-09-09T10:44:12;97106.91;;;25.44;52.35
12973;BME280;6551;51.056;9.466;2022-09-09T10:47:26;97110.47;;;25.74;51.69
12973;BME280;6551;51.056;9.466;2022-09-09T10:53:35;97098.09;;;25.47;50.56
12973;BME280;6551;51.056;9.466;2022-09-09T10:56:10;97113.31;;;25.57;50.64
12973;BME280;6551;51.056;9.466;2022-09-09T11:01:24;97098.81;;;25.27;50.45
12973;BME280;6551;51.056;9.466;2022-09-09T11:04:00;97092.94;;;25.54;51.57
12973;BME280;6551;51.056;9.466;2022-09-09T11:06:40;97091.97;;;26.09;49.23
12973;BME280;6551;51.056;9.466;2022-09-09T11:09:17;97083.19;;;26.45;48.08
12973;BME280;6551;51.056;9.466;2022-09-09T11:11:53;97085.00;;;26.73;49.09
12973;BME280;6551;51.056;9.466;2022-09-09T11:17:09;97076.66;;;25.96;47.16
12973;BME280;6551;51.056;9.466;2022-09-09T11:19:40;97076.56;;;25.84;47.30
12973;BME280;6551;51.056;9.466;2022-09-09T11:22:12;97075.50;;;25.47;48.66
12973;BME280;6551;51.056;9.466;2022-09-09T11:24:51;97071.00;;;25.42;49.09
12973;BME280;6551;51.056;9.466;2022-09-09T11:27:29;97070.78;;;24.55;49.30
12973;BME280;6551;51.056;9.466;2022-09-09T11:30:19;97065.19;;;24.42;50.94
12973;BME280;6551;51.056;9.466;2022-09-09T11:33:20;97070.75;;;24.72;50.72
12973;BME280;6551;51.056;9.466;2022-09-09T11:42:20;97053.78;;;25.59;46.46
12973;BME280;6551;51.056;9.466;2022-09-09T11:44:46;97056.50;;;25.59;47.75
12973;BME280;6551;51.056;9.466;2022-09-09T11:47:29;97050.78;;;26.23;46.66
12973;BME280;6551;51.056;9.466;2022-09-09T11:52:50;97059.78;;;25.73;46.75
12973;BME280;6551;51.056;9.466;2022-09-09T11:55:31;97079.50;;;25.49;47.83
12973;BME280;6551;51.056;9.466;2022-09-09T11:58:00;97074.13;;;25.62;47.86
12973;BME280;6551;51.056;9.466;2022-09-09T12:00:40;97077.00;;;25.65;48.43
12973;BME280;6551;51.056;9.466;2022-09-09T12:03:49;97090.91;;;25.72;48.23
12973;BME280;6551;51.056;9.466;2022-09-09T12:06:29;97096.31;;;26.10;48.03
12973;BME280;6551;51.056;9.466;2022-09-09T12:09:15;97098.09;;;25.77;47.48
12973;BME280;6551;51.056;9.466;2022-09-09T12:11:42;97093.69;;;25.64;48.75
12973;BME280;6551;51.056;9.466;2022-09-09T12:14:38;97097.19;;;25.35;48.66
12973;BME280;6551;51.056;9.466;2022-09-09T12:17:25;97094.34;;;25.61;47.96
12973;BME280;6551;51.056;9.466;2022-09-09T12:28:22;97101.84;;;25.34;47.71
12973;BME280;6551;51.056;9.466;2022-09-09T12:33:21;97100.03;;;25.47;48.29
12973;BME280;6551;51.056;9.466;2022-09-09T12:35:56;97096.94;;;25.11;48.42
12973;BME280;6551;51.056;9.466;2022-09-09T12:38:43;97086.09;;;24.93;48.67
12973;BME280;6551;51.056;9.466;2022-09-09T12:41:24;97085.72;;;25.21;47.90
12973;BME280;6551;51.056;9.466;2022-09-09T12:43:50;97085.59;;;25.00;49.02
12973;BME280;6551;51.056;9.466;2022-09-09T12:48:58;97084.72;;;25.25;48.30
12973;BME280;6551;51.056;9.466;2022-09-09T12:51:28;97085.66;;;25.67;47.61
12973;BME280;6551;51.056;9.466;2022-09-09T12:53:55;97078.19;;;25.85;49.00
12973;BME280;6551;51.056;9.466;2022-09-09T12:56:24;97085.97;;;25.95;48.10
12973;BME280;6551;51.056;9.466;2022-09-09T12:58:56;97087.31;;;25.60;47.19
12973;BME280;6551;51.056;9.466;2022-09-09T13:01:27;97088.81;;;25.40;47.98
12973;BME280;6551;51.056;9.466;2022-09-09T13:03:54;97084.50;;;25.01;47.54
12973;BME280;6551;51.056;9.466;2022-09-09T13:06:23;97081.75;;;25.10;48.34
12973;BME280;6551;51.056;9.466;2022-09-09T13:08:51;97074.56;;;24.96;49.04
12973;BME280;6551;51.056;9.466;2022-09-09T13:11:26;97077.44;;;25.00;48.46
12973;BME280;6551;51.056;9.466;2022-09-09T13:13:56;97068.41;;;25.17;47.88
12973;BME280;6551;51.056;9.466;2022-09-09T13:16:27;97079.66;;;25.07;47.12
12973;BME280;6551;51.056;9.466;2022-09-09T13:19:20;97077.84;;;25.19;47.92
12973;BME280;6551;51.056;9.466;2022-09-09T13:21:47;97077.09;;;25.48;48.05
12973;BME280;6551;51.056;9.466;2022-09-09T13:24:32;97074.53;;;25.51;47.55
12973;BME280;6551;51.056;9.466;2022-09-09T13:27:39;97063.19;;;25.32;46.57
12973;BME280;6551;51.056;9.466;2022-09-09T13:30:34;97069.63;;;24.90;47.21
12973;BME280;6551;51.056;9.466;2022-09-09T13:33:43;97068.78;;;24.98;47.98
12973;BME280;6551;51.056;9.466;2022-09-09T13:36:11;97069.44;;;24.95;48.34
12973;BME280;6551;51.056;9.466;2022-09-09T13:38:53;97070.44;;;24.90;47.54
12973;BME280;6551;51.056;9.466;2022-09-09T13:41:22;97072.19;;;24.78;48.10
12973;BME280;6551;51.056;9.466;2022-09-09T13:43:52;97069.13;;;24.88;48.56
12973;BME280;6551;51.056;9.466;2022-09-09T13:46:39;97060.94;;;24.96;47.95
12973;BME280;6551;51.056;9.466;2022-09-09T13:54:06;97044.03;;;24.57;49.48
12973;BME280;6551;51.056;9.466;2022-09-09T13:56:35;97060.16;;;24.96;50.40
12973;BME280;6551;51.056;9.466;2022-09-09T13:59:05;97063.41;;;25.19;49.84
12973;BME280;6551;51.056;9.466;2022-09-09T14:01:31;97054.97;;;25.41;49.81
12973;BME280;6551;51.056;9.466;2022-09-09T14:04:00;97056.09;;;25.40;49.70
12973;BME280;6551;51.056;9.466;2022-09-09T14:06:26;97052.38;;;25.44;49.13
12973;BME280;6551;51.056;9.466;2022-09-09T14:08:53;97061.81;;;25.18;49.63
12973;BME280;6551;51.056;9.466;2022-09-09T14:11:21;97055.91;;;25.45;48.33
12973;BME280;6551;51.056;9.466;2022-09-09T14:13:48;97048.72;;;25.40;47.03
12973;BME280;6551;51.056;9.466;2022-09-09T14:16:18;97043.59;;;25.47;47.14
12973;BME280;6551;51.056;9.466;2022-09-09T14:18:45;97041.69;;;25.02;48.25
12973;BME280;6551;51.056;9.466;2022-09-09T14:21:11;97042.50;;;24.93;48.38
12973;BME280;6551;51.056;9.466;2022-09-09T14:23:38;97039.50;;;25.24;48.41
12973;BME280;6551;51.056;9.466;2022-09-09T14:26:05;97042.31;;;25.07;47.99
12973;BME280;6551;51.056;9.466;2022-09-09T14:28:32;97044.44;;;25.02;48.09
12973;BME280;6551;51.056;9.466;2022-09-09T14:31:03;97042.31;;;25.07;47.88
12973;BME280;6551;51.056;9.466;2022-09-09T14:33:30;97052.25;;;25.03;48.15
12973;BME280;6551;51.056;9.466;2022-09-09T14:36:01;97048.69;;;24.56;48.52
12973;BME280;6551;51.056;9.466;2022-09-09T14:38:36;97046.72;;;24.74;49.06
12973;BME280;6551;51.056;9.466;2022-09-09T14:41:06;97052.31;;;24.86;49.19
12973;BME280;6551;51.056;9.466;2022-09-09T14:43:32;97051.84;;;24.84;48.48
12973;BME280;6551;51.056;9.466;2022-09-09T14:46:09;97061.28;;;24.86;49.11
12973;BME280;6551;51.056;9.466;2022-09-09T14:48:36;97062.47;;;24.42;50.06
12973;BME280;6551;51.056;9.466;2022-09-09T14:51:17;97045.19;;;24.38;50.08
12973;BME280;6551;51.056;9.466;2022-09-09T14:53:46;97057.84;;;24.17;50.03
12973;BME280;6551;51.056;9.466;2022-09-09T14:56:16;97046.78;;;24.05;50.83
12973;BME280;6551;51.056;9.466;2022-09-09T14:58:42;97053.22;;;24.18;50.56
12973;BME280;6551;51.056;9.466;2022-09-09T15:01:12;97052.88;;;24.45;50.86
12973;BME280;6551;51.056;9.466;2022-09-09T15:03:40;97046.44;;;24.58;51.14
12973;BME280;6551;51.056;9.466;2022-09-09T15:06:12;97044.81;;;24.66;50.33
12973;BME280;6551;51.056;9.466;2022-09-09T15:08:41;97049.78;;;24.64;50.10
12973;BME280;6551;51.056;9.466;2022-09-09T15:11:08;97039.41;;;24.49;50.93
12973;BME280;6551;51.056;9.466;2022-09-09T15:13:36;97042.81;;;24.11;50.06
12973;BME280;6551;51.056;9.466;2022-09-09T15:16:07;97045.81;;;24.53;50.23
12973;BME280;6551;51.056;9.466;2022-09-09T15:18:34;97047.28;;;24.07;50.47
12973;BME280;6551;51.056;9.466;2022-09-09T15:21:04;97050.00;;;24.16;49.68
12973;BME280;6551;51.056;9.466;2022-09-09T15:23:36;97045.19;;;23.96;50.61
12973;BME280;6551;51.056;9.466;2022-09-09T15:26:02;97053.16;;;23.75;50.93
12973;BME280;6551;51.056;9.466;2022-09-09T15:28:29;97044.03;;;23.62;51.07
12973;BME280;6551;51.056;9.466;2022-09-09T15:30:55;97035.56;;;23.72;51.92
12973;BME280;6551;51.056;9.466;2022-09-09T15:33:22;97033.63;;;23.64;51.82
12973;BME280;6551;51.056;9.466;2022-09-09T15:35:48;97031.75;;;23.73;51.78
12973;BME280;6551;51.056;9.466;2022-09-09T15:38:15;97032.03;;;23.63;52.08
12973;BME280;6551;51.056;9.466;2022-09-09T15:40:43;97027.25;;;23.95;52.00
12973;BME280;6551;51.056;9.466;2022-09-09T15:43:09;97025.22;;;24.17;51.31
12973;BME280;6551;51.056;9.466;2022-09-09T15:45:36;97018.94;;;24.08;50.97
12973;BME280;6551;51.056;9.466;2022-09-09T15:48:03;97031.72;;;24.08;51.35
12973;BME280;6551;51.056;9.466;2022-09-09T15:50:30;97017.97;;;23.87;50.75
12973;BME280;6551;51.056;9.466;2022-09-09T15:52:59;97020.38;;;23.97;51.11